createdAt,value
2018-10-05T00:00:33.419Z,14.10
2018-10-05T00:01:33.433Z,15.10
2018-10-05T00:02:33.447Z,15.70
2018-10-05T00:03:33.460Z,14.90
2018-10-05T00:04:33.497Z,16.80
2018-10-05T00:05:33.487Z,14.30
2018-10-05T00:06:33.558Z,13.70
2018-10-05T00:07:33.517Z,14.50
2018-10-05T00:08:33.529Z,15.70
2018-10-05T00:09:33.542Z,14.20
2018-10-05T00:10:33.557Z,14.70
2018-10-05T00:11:33.571Z,15.00
2018-10-05T00:12:33.612Z,14.10
2018-10-05T00:13:33.598Z,14.70
2018-10-05T00:14:33.613Z,15.60
2018-10-05T00:15:33.626Z,15.10
2018-10-05T00:16:33.647Z,15.70
2018-10-05T00:17:33.657Z,16.70
2018-10-05T00:18:33.668Z,14.70
2018-10-05T00:19:33.685Z,14.70
2018-10-05T00:20:33.740Z,15.90
2018-10-05T00:21:33.708Z,16.50
2018-10-05T00:22:33.748Z,16.60
2018-10-05T00:23:33.737Z,15.30
2018-10-05T00:24:33.750Z,16.60
2018-10-05T00:25:33.765Z,16.80
2018-10-05T00:26:33.776Z,16.30
2018-10-05T00:27:33.794Z,17.20
2018-10-05T00:28:33.808Z,16.40
2018-10-05T00:29:33.820Z,13.40
2018-10-05T00:30:33.836Z,13.50
2018-10-05T00:31:33.847Z,14.40
2018-10-05T00:32:33.956Z,13.70
2018-10-05T00:33:33.876Z,13.90
2018-10-05T00:34:33.888Z,16.10
2018-10-05T00:35:33.906Z,16.10
2018-10-05T00:36:33.921Z,16.40
2018-10-05T00:37:33.932Z,14.30
2018-10-05T00:38:34.029Z,14.30
2018-10-05T00:39:33.961Z,14.40
2018-10-05T00:40:33.973Z,15.60
2018-10-05T00:41:33.986Z,14.70
2018-10-05T00:42:34.005Z,15.10
2018-10-05T00:43:34.012Z,13.80
2018-10-05T00:44:34.029Z,13.50
2018-10-05T00:45:34.039Z,14.50
2018-10-05T00:46:34.054Z,13.20
2018-10-05T00:47:34.067Z,15.40
2018-10-05T00:48:34.079Z,15.90
2018-10-05T00:49:34.094Z,15.40
2018-10-05T00:50:34.108Z,14.40
2018-10-05T00:51:34.123Z,14.50
2018-10-05T00:52:34.138Z,18.00
2018-10-05T00:53:34.164Z,13.70
2018-10-05T00:54:34.167Z,15.30
2018-10-05T00:55:34.178Z,15.70
2018-10-05T00:56:34.192Z,14.00
2018-10-05T00:57:34.211Z,17.50
2018-10-05T00:58:34.217Z,15.40
2018-10-05T00:59:34.236Z,14.40
2018-10-05T01:00:34.245Z,15.30
2018-10-05T01:01:34.264Z,14.70
2018-10-05T01:02:34.273Z,13.70
2018-10-05T01:03:34.291Z,15.40
2018-10-05T01:04:34.307Z,15.90
2018-10-05T01:05:34.313Z,14.00
2018-10-05T01:06:34.326Z,15.10
2018-10-05T01:07:34.344Z,14.00
2018-10-05T01:08:34.359Z,14.20
2018-10-05T01:09:34.378Z,16.60
2018-10-05T01:10:34.434Z,15.90
2018-10-05T01:11:34.459Z,15.10
2018-10-05T01:12:34.416Z,15.20
2018-10-05T01:13:34.423Z,14.30
2018-10-05T01:14:34.438Z,13.90
2018-10-05T01:15:34.452Z,14.20
2018-10-05T01:16:34.471Z,13.10
2018-10-05T01:17:34.480Z,13.40
2018-10-05T01:18:34.494Z,15.20
2018-10-05T01:19:34.513Z,13.70
2018-10-05T01:20:34.521Z,13.20
2018-10-05T01:21:34.849Z,16.10
2018-10-05T01:22:34.553Z,14.20
2018-10-05T01:23:34.563Z,16.30
2018-10-05T01:24:34.574Z,15.10
2018-10-05T01:25:34.588Z,13.20
2018-10-05T01:26:34.602Z,14.90
2018-10-05T01:27:34.620Z,14.10
2018-10-05T01:28:34.631Z,15.60
2018-10-05T01:29:34.648Z,14.30
2018-10-05T01:30:34.657Z,15.20
2018-10-05T01:31:34.673Z,16.50
2018-10-05T01:32:34.685Z,14.70
2018-10-05T01:33:34.698Z,13.30
2018-10-05T01:34:34.724Z,14.50
2018-10-05T01:35:34.728Z,13.80
2018-10-05T01:36:34.740Z,16.60
2018-10-05T01:37:34.754Z,14.60
2018-10-05T01:38:34.773Z,16.00
2018-10-05T01:39:34.784Z,15.90
2018-10-05T01:40:34.996Z,15.30
2018-10-05T01:41:34.818Z,14.20
2018-10-05T01:42:34.821Z,16.30
2018-10-05T01:43:34.839Z,16.10
2018-10-05T01:44:34.849Z,13.40
2018-10-05T01:45:34.860Z,15.50
2018-10-05T01:46:34.876Z,14.20
2018-10-05T01:47:34.890Z,15.90
2018-10-05T01:48:34.904Z,16.00
2018-10-05T01:49:34.918Z,13.80
2018-10-05T01:50:34.931Z,13.80
2018-10-05T01:51:34.945Z,14.70
2018-10-05T01:52:34.973Z,16.40
2018-10-05T01:53:34.974Z,16.50
2018-10-05T01:54:34.993Z,14.90
2018-10-05T01:55:35.000Z,15.90
2018-10-05T01:56:35.013Z,13.70
2018-10-05T01:57:35.026Z,15.90
2018-10-05T01:58:35.041Z,13.60
2018-10-05T01:59:35.055Z,16.00
2018-10-05T02:00:35.074Z,15.50
2018-10-05T02:01:35.080Z,15.20
2018-10-05T02:02:35.128Z,15.30
2018-10-05T02:03:35.111Z,14.40
2018-10-05T02:04:35.127Z,16.30
2018-10-05T02:05:35.136Z,14.60
2018-10-05T02:06:35.150Z,14.30
2018-10-05T02:07:35.169Z,17.30
2018-10-05T02:08:35.178Z,14.50
2018-10-05T02:09:35.193Z,16.40
2018-10-05T02:10:35.204Z,14.10
2018-10-05T02:11:35.217Z,14.20
2018-10-05T02:12:35.233Z,15.60
2018-10-05T02:13:35.447Z,15.10
2018-10-05T02:14:35.276Z,14.80
2018-10-05T02:15:35.272Z,15.20
2018-10-05T02:16:35.292Z,16.00
2018-10-05T02:17:35.299Z,14.50
2018-10-05T02:18:35.312Z,14.20
2018-10-05T02:19:35.327Z,15.00
2018-10-05T02:20:35.342Z,14.80
2018-10-05T02:21:35.353Z,15.60
2018-10-05T02:22:35.367Z,14.10
2018-10-05T02:23:35.388Z,13.70
2018-10-05T02:24:35.399Z,14.80
2018-10-05T02:25:35.408Z,14.70
2018-10-05T02:26:35.421Z,14.30
2018-10-05T02:27:35.505Z,13.90
2018-10-05T02:28:35.449Z,16.10
2018-10-05T02:29:35.463Z,15.70
2018-10-05T02:30:35.477Z,15.70
2018-10-05T02:31:35.491Z,16.70
2018-10-05T02:32:35.508Z,16.20
2018-10-05T02:33:35.519Z,13.70
2018-10-05T02:34:35.534Z,15.30
2018-10-05T02:35:35.546Z,17.10
2018-10-05T02:36:35.917Z,15.00
2018-10-05T02:37:35.571Z,14.50
2018-10-05T02:38:35.585Z,14.40
2018-10-05T02:39:35.600Z,15.00
2018-10-05T02:40:35.613Z,14.30
2018-10-05T02:41:35.641Z,18.00
2018-10-05T02:42:35.845Z,16.50
2018-10-05T02:43:35.663Z,15.60
2018-10-05T02:44:35.667Z,16.20
2018-10-05T02:45:35.680Z,16.70
2018-10-05T02:46:35.694Z,16.60
2018-10-05T02:47:35.706Z,16.40
2018-10-05T02:48:35.723Z,14.90
2018-10-05T02:49:35.733Z,17.70
2018-10-05T02:50:35.747Z,14.30
2018-10-05T02:51:35.761Z,14.40
2018-10-05T02:52:35.774Z,16.30
2018-10-05T02:53:35.790Z,14.30
2018-10-05T02:54:35.818Z,16.50
2018-10-05T02:55:35.816Z,15.70
2018-10-05T02:56:35.829Z,16.60
2018-10-05T02:57:35.842Z,15.50
2018-10-05T02:58:35.856Z,13.90
2018-10-05T02:59:35.868Z,14.10
2018-10-05T03:00:35.885Z,17.40
2018-10-05T03:01:35.900Z,15.60
2018-10-05T03:02:35.910Z,16.30
2018-10-05T03:03:35.924Z,17.50
2018-10-05T03:04:35.936Z,14.20
2018-10-05T03:05:35.950Z,15.70
2018-10-05T03:06:35.965Z,16.90
2018-10-05T03:07:35.983Z,13.70
2018-10-05T03:08:35.991Z,15.50
2018-10-05T03:09:36.007Z,17.10
2018-10-05T03:10:36.016Z,15.60
2018-10-05T03:11:36.036Z,16.10
2018-10-05T03:12:36.047Z,15.40
2018-10-05T03:13:36.057Z,15.10
2018-10-05T03:14:36.073Z,15.80
2018-10-05T03:15:36.089Z,14.60
2018-10-05T03:16:36.184Z,15.60
2018-10-05T03:17:36.109Z,16.50
2018-10-05T03:18:36.125Z,15.70
2018-10-05T03:19:36.140Z,13.60
2018-10-05T03:20:36.152Z,13.90
2018-10-05T03:21:36.165Z,14.10
2018-10-05T03:22:36.189Z,15.00
2018-10-05T03:23:36.192Z,16.30
2018-10-05T03:24:36.211Z,16.90
2018-10-05T03:25:36.227Z,15.20
2018-10-05T03:26:36.245Z,16.40
2018-10-05T03:27:36.246Z,14.90
2018-10-05T03:28:36.259Z,17.40
2018-10-05T03:29:36.275Z,15.10
2018-10-05T03:30:36.288Z,16.90
2018-10-05T03:31:36.300Z,15.60
2018-10-05T03:32:36.337Z,17.60
2018-10-05T03:33:36.326Z,15.20
2018-10-05T03:34:36.342Z,15.80
2018-10-05T03:35:36.356Z,14.20
2018-10-05T03:36:36.375Z,16.10
2018-10-05T03:37:36.381Z,15.90
2018-10-05T03:38:36.446Z,15.60
2018-10-05T03:39:36.417Z,16.20
2018-10-05T03:40:36.421Z,17.80
2018-10-05T03:41:36.436Z,17.30
2018-10-05T03:42:36.449Z,16.00
2018-10-05T03:43:36.463Z,15.20
2018-10-05T03:44:36.479Z,16.50
2018-10-05T03:45:36.488Z,15.80
2018-10-05T03:46:36.502Z,16.50
2018-10-05T03:47:36.527Z,15.10
2018-10-05T03:48:36.529Z,16.60
2018-10-05T03:49:36.549Z,16.60
2018-10-05T03:50:36.560Z,15.60
2018-10-05T03:51:36.571Z,17.80
2018-10-05T03:52:36.583Z,15.50
2018-10-05T03:53:36.599Z,16.90
2018-10-05T03:54:36.619Z,15.80
2018-10-05T03:55:36.629Z,14.30
2018-10-05T03:56:36.638Z,14.00
2018-10-05T03:57:36.654Z,14.60
2018-10-05T03:58:36.664Z,16.90
2018-10-05T03:59:36.680Z,14.10
2018-10-05T04:00:36.691Z,15.60
2018-10-05T04:01:36.705Z,16.30
2018-10-05T04:02:36.718Z,14.80
2018-10-05T04:03:36.751Z,16.90
2018-10-05T04:04:36.743Z,12.90
2018-10-05T04:05:36.757Z,15.50
2018-10-05T04:06:36.773Z,14.30
2018-10-05T04:07:36.784Z,16.00
2018-10-05T04:08:36.798Z,15.70
2018-10-05T04:09:36.817Z,13.60
2018-10-05T04:10:36.825Z,16.20
2018-10-05T04:11:36.838Z,16.40
2018-10-05T04:12:36.854Z,14.40
2018-10-05T04:13:36.864Z,16.30
2018-10-05T04:14:36.877Z,15.00
2018-10-05T04:15:36.891Z,17.20
2018-10-05T04:16:36.904Z,16.20
2018-10-05T04:17:36.926Z,16.20
2018-10-05T04:18:36.936Z,15.70
2018-10-05T04:19:36.944Z,14.50
2018-10-05T04:20:36.957Z,16.00
2018-10-05T04:21:39.134Z,13.50
2018-10-05T04:22:36.984Z,15.20
2018-10-05T04:23:37.000Z,17.00
2018-10-05T04:24:37.016Z,15.10
2018-10-05T04:25:37.029Z,17.60
2018-10-05T04:26:37.046Z,15.50
2018-10-05T04:27:37.054Z,14.00
2018-10-05T04:28:37.067Z,15.50
2018-10-05T04:29:37.081Z,15.40
2018-10-05T04:30:37.284Z,15.80
2018-10-05T04:31:37.787Z,15.60
2018-10-05T04:32:37.343Z,17.70
2018-10-05T04:33:37.135Z,17.20
2018-10-05T04:34:37.163Z,16.20
2018-10-05T04:35:37.258Z,15.00
2018-10-05T04:36:37.604Z,16.90
2018-10-05T04:37:37.254Z,16.80
2018-10-05T04:38:37.197Z,15.70
2018-10-05T04:39:37.213Z,15.30
2018-10-05T04:40:37.227Z,16.30
2018-10-05T04:41:37.239Z,14.60
2018-10-05T04:42:37.261Z,16.30
2018-10-05T04:43:37.273Z,17.90
2018-10-05T04:44:37.426Z,16.60
2018-10-05T04:45:37.472Z,14.00
2018-10-05T04:46:37.307Z,17.60
2018-10-05T04:47:37.830Z,16.30
2018-10-05T04:48:37.337Z,15.90
2018-10-05T04:49:37.434Z,16.50
2018-10-05T04:50:37.643Z,14.10
2018-10-05T04:51:37.970Z,17.90
2018-10-05T04:52:37.455Z,17.50
2018-10-05T04:53:38.482Z,14.80
2018-10-05T04:54:37.514Z,17.10
2018-10-05T04:55:37.477Z,17.70
2018-10-05T04:56:37.620Z,19.10
2018-10-05T04:57:37.527Z,20.10
2018-10-05T04:58:37.522Z,21.70
2018-10-05T04:59:37.498Z,16.10
2018-10-05T05:00:37.496Z,19.10
2018-10-05T05:01:37.568Z,18.90
2018-10-05T05:02:37.520Z,19.00
2018-10-05T05:03:37.624Z,18.00
2018-10-05T05:04:37.565Z,19.60
2018-10-05T05:05:37.565Z,20.20
2018-10-05T05:06:37.573Z,20.50
2018-10-05T05:07:37.585Z,19.70
2018-10-05T05:08:37.597Z,19.50
2018-10-05T05:09:37.616Z,19.40
2018-10-05T05:10:37.624Z,20.00
2018-10-05T05:11:37.637Z,20.90
2018-10-05T05:12:37.651Z,23.10
2018-10-05T05:13:37.663Z,17.70
2018-10-05T05:14:37.680Z,21.60
2018-10-05T05:15:37.691Z,17.80
2018-10-05T05:16:37.704Z,16.20
2018-10-05T05:17:37.715Z,15.80
2018-10-05T05:18:37.730Z,15.00
2018-10-05T05:19:37.760Z,16.70
2018-10-05T05:20:37.769Z,15.20
2018-10-05T05:21:37.772Z,18.10
2018-10-05T05:22:37.804Z,16.70
2018-10-05T05:23:37.795Z,17.10
2018-10-05T05:24:37.810Z,16.80
2018-10-05T05:25:38.192Z,15.10
2018-10-05T05:26:37.837Z,19.30
2018-10-05T05:27:37.952Z,15.50
2018-10-05T05:28:37.868Z,16.70
2018-10-05T05:29:37.879Z,15.30
2018-10-05T05:30:37.901Z,15.90
2018-10-05T05:31:37.903Z,15.90
2018-10-05T05:32:37.914Z,14.90
2018-10-05T05:33:38.023Z,17.10
2018-10-05T05:34:37.942Z,15.10
2018-10-05T05:35:37.958Z,15.10
2018-10-05T05:36:37.979Z,16.00
2018-10-05T05:37:38.286Z,15.50
2018-10-05T05:38:38.002Z,15.50
2018-10-05T05:39:38.681Z,14.90
2018-10-05T05:40:38.024Z,14.90
2018-10-05T05:41:38.045Z,16.30
2018-10-05T05:42:38.053Z,15.70
2018-10-05T05:43:38.069Z,14.20
2018-10-05T05:44:38.085Z,15.50
2018-10-05T05:45:38.090Z,18.20
2018-10-05T05:46:38.146Z,16.40
2018-10-05T05:47:38.258Z,16.20
2018-10-05T05:48:38.360Z,16.80
2018-10-05T05:49:39.507Z,16.70
2018-10-05T05:50:38.213Z,14.20
2018-10-05T05:51:38.199Z,15.40
2018-10-05T05:52:38.715Z,18.10
2018-10-05T05:53:38.211Z,14.40
2018-10-05T05:54:38.440Z,17.70
2018-10-05T05:55:38.542Z,14.60
2018-10-05T05:56:38.235Z,15.50
2018-10-05T05:57:38.261Z,14.30
2018-10-05T05:58:40.141Z,15.90
2018-10-05T05:59:39.553Z,16.70
2018-10-05T06:00:38.295Z,17.50
2018-10-05T06:02:40.085Z,15.50
2018-10-05T06:03:38.331Z,16.20
2018-10-05T06:04:38.342Z,16.10
2018-10-05T06:05:38.350Z,16.30
2018-10-05T06:06:38.361Z,16.20
2018-10-05T06:07:38.382Z,15.80
2018-10-05T06:08:38.541Z,15.20
2018-10-05T06:09:38.944Z,15.80
2018-10-05T06:10:38.992Z,16.60
2018-10-05T06:11:40.793Z,16.70
2018-10-05T06:12:38.465Z,14.90
2018-10-05T06:13:38.456Z,14.10
2018-10-05T06:14:38.468Z,14.70
2018-10-05T06:15:38.488Z,14.70
2018-10-05T06:16:38.497Z,13.90
2018-10-05T06:17:38.510Z,15.50
2018-10-05T06:18:38.522Z,15.40
2018-10-05T06:19:38.550Z,15.60
2018-10-05T06:20:38.559Z,15.80
2018-10-05T06:21:38.655Z,14.30
2018-10-05T06:22:38.650Z,16.50
2018-10-05T06:23:38.588Z,15.30
2018-10-05T06:24:38.604Z,17.00
2018-10-05T06:25:38.619Z,18.70
2018-10-05T06:26:38.669Z,15.80
2018-10-05T06:27:38.645Z,16.90
2018-10-05T06:28:38.659Z,15.00
2018-10-05T06:29:38.668Z,15.50
2018-10-05T06:30:38.764Z,15.80
2018-10-05T06:31:38.696Z,15.90
2018-10-05T06:32:38.766Z,15.30
2018-10-05T06:33:38.724Z,17.90
2018-10-05T06:34:39.888Z,18.00
2018-10-05T06:35:38.748Z,19.10
2018-10-05T06:36:38.764Z,16.90
2018-10-05T06:37:38.785Z,15.90
2018-10-05T06:38:38.792Z,21.10
2018-10-05T06:39:38.805Z,17.10
2018-10-05T06:40:38.817Z,19.00
2018-10-05T06:41:38.845Z,16.90
2018-10-05T06:42:38.931Z,15.00
2018-10-05T06:43:38.858Z,15.80
2018-10-05T06:44:38.870Z,16.40
2018-10-05T06:45:39.037Z,15.60
2018-10-05T06:46:38.899Z,15.90
2018-10-05T06:47:38.911Z,14.70
2018-10-05T06:48:38.928Z,16.70
2018-10-05T06:49:38.938Z,15.00
2018-10-05T06:50:38.951Z,16.60
2018-10-05T06:51:38.970Z,13.70
2018-10-05T06:52:39.005Z,16.30
2018-10-05T06:53:39.144Z,16.20
2018-10-05T06:54:39.005Z,13.90
2018-10-05T06:55:39.030Z,16.00
2018-10-05T06:56:39.083Z,15.20
2018-10-05T06:57:39.046Z,17.50
2018-10-05T06:58:39.066Z,18.40
2018-10-05T06:59:39.077Z,14.10
2018-10-05T07:00:39.102Z,14.40
2018-10-05T07:01:39.167Z,15.30
2018-10-05T07:02:39.115Z,15.90
2018-10-05T07:03:39.171Z,13.50
2018-10-05T07:04:39.157Z,14.60
2018-10-05T07:05:39.164Z,16.10
2018-10-05T07:06:39.175Z,13.30
2018-10-05T07:07:39.298Z,13.70
2018-10-05T07:08:39.199Z,14.40
2018-10-05T07:09:39.207Z,14.80
2018-10-05T07:10:39.322Z,14.00
2018-10-05T07:11:39.239Z,14.40
2018-10-05T07:12:39.263Z,13.70
2018-10-05T07:13:39.274Z,13.80
2018-10-05T07:14:39.292Z,14.30
2018-10-05T07:15:39.351Z,15.70
2018-10-05T07:16:39.307Z,13.00
2018-10-05T07:17:39.320Z,11.40
2018-10-05T07:18:39.357Z,13.50
2018-10-05T07:19:39.346Z,14.30
2018-10-05T07:20:39.362Z,13.50
2018-10-05T07:21:39.374Z,13.60
2018-10-05T07:22:39.393Z,14.10
2018-10-05T07:23:39.401Z,13.70
2018-10-05T07:24:39.430Z,15.60
2018-10-05T07:25:39.428Z,11.40
2018-10-05T07:26:39.441Z,12.70
2018-10-05T07:27:39.473Z,10.60
2018-10-05T07:28:39.509Z,13.00
2018-10-05T07:29:39.493Z,11.30
2018-10-05T07:30:39.495Z,12.80
2018-10-05T07:31:39.523Z,10.90
2018-10-05T07:32:39.536Z,12.40
2018-10-05T07:33:39.558Z,14.10
2018-10-05T07:34:39.577Z,14.50
2018-10-05T07:35:39.570Z,14.00
2018-10-05T07:36:39.584Z,13.90
2018-10-05T07:37:39.611Z,12.40
2018-10-05T07:38:39.622Z,14.00
2018-10-05T07:39:39.622Z,12.50
2018-10-05T07:40:39.633Z,12.50
2018-10-05T07:41:40.195Z,11.60
2018-10-05T07:42:39.663Z,13.00
2018-10-05T07:43:39.678Z,13.80
2018-10-05T07:44:39.691Z,12.30
2018-10-05T07:45:39.703Z,12.90
2018-10-05T07:46:39.737Z,14.30
2018-10-05T07:47:40.724Z,12.80
2018-10-05T07:48:39.754Z,12.80
2018-10-05T07:49:39.760Z,14.20
2018-10-05T07:50:39.775Z,12.40
2018-10-05T07:51:39.808Z,10.50
2018-10-05T07:52:39.801Z,12.20
2018-10-05T07:53:39.821Z,13.00
2018-10-05T07:54:39.841Z,11.40
2018-10-05T07:55:39.842Z,13.10
2018-10-05T07:56:39.858Z,13.60
2018-10-05T07:57:40.079Z,13.10
2018-10-05T07:58:39.883Z,12.70
2018-10-05T07:59:39.899Z,14.90
2018-10-05T08:00:39.911Z,13.20
2018-10-05T08:01:39.924Z,12.30
2018-10-05T08:02:40.019Z,14.40
2018-10-05T08:03:39.953Z,12.00
2018-10-05T08:04:40.068Z,13.50
2018-10-05T08:05:39.981Z,11.90
2018-10-05T08:06:39.999Z,13.00
2018-10-05T08:07:40.009Z,12.80
2018-10-05T08:08:40.026Z,10.80
2018-10-05T08:09:40.083Z,9.70
2018-10-05T08:10:40.114Z,12.10
2018-10-05T08:11:40.073Z,11.90
2018-10-05T08:12:40.076Z,12.80
2018-10-05T08:13:40.103Z,11.40
2018-10-05T08:14:40.104Z,11.90
2018-10-05T08:15:40.115Z,13.30
2018-10-05T08:16:40.131Z,12.10
2018-10-05T08:17:40.152Z,12.60
2018-10-05T08:18:40.161Z,8.60
2018-10-05T08:19:40.179Z,9.60
2018-10-05T08:20:40.188Z,10.60
2018-10-05T08:21:40.281Z,11.40
2018-10-05T08:22:40.268Z,11.50
2018-10-05T08:23:40.229Z,10.00
2018-10-05T08:24:40.378Z,9.40
2018-10-05T08:25:40.257Z,13.00
2018-10-05T08:26:40.273Z,10.10
2018-10-05T08:27:40.291Z,9.10
2018-10-05T08:28:40.305Z,9.50
2018-10-05T08:29:40.314Z,9.80
2018-10-05T08:30:40.329Z,9.80
2018-10-05T08:31:40.346Z,14.50
2018-10-05T08:32:40.369Z,9.40
2018-10-05T08:33:40.371Z,14.90
2018-10-05T08:34:40.458Z,12.20
2018-10-05T08:35:40.404Z,11.90
2018-10-05T08:36:40.414Z,11.40
2018-10-05T08:37:40.437Z,10.20
2018-10-05T08:38:40.450Z,10.50
2018-10-05T08:39:40.534Z,11.90
2018-10-05T08:40:40.478Z,12.70
2018-10-05T08:41:40.496Z,11.40
2018-10-05T08:42:40.500Z,11.10
2018-10-05T08:43:40.515Z,11.00
2018-10-05T08:44:40.615Z,9.10
2018-10-05T08:45:40.543Z,11.70
2018-10-05T08:46:40.555Z,11.70
2018-10-05T08:47:40.571Z,12.50
2018-10-05T08:48:40.593Z,11.10
2018-10-05T08:49:40.601Z,12.60
2018-10-05T08:50:40.614Z,10.10
2018-10-05T08:51:40.838Z,12.50
2018-10-05T08:52:40.643Z,12.60
2018-10-05T08:53:40.661Z,12.40
2018-10-05T08:54:40.671Z,13.20
2018-10-05T08:55:40.684Z,13.30
2018-10-05T08:56:40.707Z,9.30
2018-10-05T08:57:40.734Z,11.70
2018-10-05T08:58:40.732Z,9.40
2018-10-05T08:59:40.749Z,12.40
2018-10-05T09:00:40.762Z,12.10
2018-10-05T09:01:40.778Z,12.20
2018-10-05T09:02:40.792Z,10.80
2018-10-05T09:03:40.802Z,12.20
2018-10-05T09:04:40.817Z,11.00
2018-10-05T09:05:40.864Z,13.50
2018-10-05T09:06:40.843Z,11.70
2018-10-05T09:07:40.874Z,13.10
2018-10-05T09:08:40.877Z,11.30
2018-10-05T09:09:40.887Z,10.80
2018-10-05T09:10:40.902Z,11.80
2018-10-05T09:11:40.936Z,15.20
2018-10-05T09:12:41.050Z,13.70
2018-10-05T09:13:41.343Z,10.70
2018-10-05T09:14:41.161Z,11.20
2018-10-05T09:15:40.978Z,14.10
2018-10-05T09:16:40.990Z,13.70
2018-10-05T09:17:41.079Z,11.80
2018-10-05T09:18:42.139Z,12.20
2018-10-05T09:19:42.072Z,10.70
2018-10-05T09:20:41.503Z,10.80
2018-10-05T09:21:41.077Z,11.70
2018-10-05T09:22:41.076Z,11.90
2018-10-05T09:23:41.092Z,14.60
2018-10-05T09:24:41.105Z,13.70
2018-10-05T09:25:41.120Z,9.40
2018-10-05T09:26:41.134Z,12.00
2018-10-05T09:27:41.150Z,12.70
2018-10-05T09:28:41.167Z,9.70
2018-10-05T09:29:41.177Z,13.00
2018-10-05T09:30:41.209Z,11.20
2018-10-05T09:31:41.207Z,10.00
2018-10-05T09:32:41.221Z,11.30
2018-10-05T09:33:41.235Z,13.20
2018-10-05T09:34:41.265Z,10.50
2018-10-05T09:35:41.266Z,11.60
2018-10-05T09:36:41.280Z,14.30
2018-10-05T09:37:41.398Z,12.60
2018-10-05T09:38:41.309Z,12.50
2018-10-05T09:39:41.324Z,10.20
2018-10-05T09:40:41.338Z,10.60
2018-10-05T09:41:41.371Z,11.00
2018-10-05T09:42:41.374Z,11.00
2018-10-05T09:43:41.383Z,8.80
2018-10-05T09:44:41.444Z,15.70
2018-10-05T09:45:41.412Z,13.70
2018-10-05T09:46:41.427Z,8.50
2018-10-05T09:47:41.449Z,13.30
2018-10-05T09:48:41.456Z,12.00
2018-10-05T09:49:41.470Z,11.70
2018-10-05T09:50:41.488Z,10.60
2018-10-05T09:51:42.417Z,12.10
2018-10-05T09:52:41.584Z,12.10
2018-10-05T09:53:41.529Z,10.80
2018-10-05T09:54:41.850Z,10.90
2018-10-05T09:55:41.563Z,13.00
2018-10-05T09:56:41.584Z,11.30
2018-10-05T09:57:41.593Z,10.00
2018-10-05T09:58:41.608Z,10.70
2018-10-05T09:59:41.674Z,13.20
2018-10-05T10:00:41.655Z,12.50
2018-10-05T10:01:41.648Z,13.50
2018-10-05T10:02:41.662Z,12.60
2018-10-05T10:03:41.691Z,11.40
2018-10-05T10:04:41.692Z,12.20
2018-10-05T10:05:41.706Z,16.10
2018-10-05T10:06:41.728Z,12.10
2018-10-05T10:07:41.737Z,12.20
2018-10-05T10:08:41.756Z,11.80
2018-10-05T10:09:41.779Z,11.20
2018-10-05T10:10:41.783Z,11.60
2018-10-05T10:11:41.798Z,13.10
2018-10-05T10:12:41.813Z,12.70
2018-10-05T10:13:41.869Z,11.70
2018-10-05T10:14:41.842Z,10.40
2018-10-05T10:15:41.855Z,9.70
2018-10-05T10:16:41.887Z,10.00
2018-10-05T10:17:41.886Z,13.10
2018-10-05T10:18:41.901Z,11.20
2018-10-05T10:19:41.916Z,10.60
2018-10-05T10:20:41.931Z,11.20
2018-10-05T10:21:41.947Z,10.10
2018-10-05T10:22:42.190Z,7.00
2018-10-05T10:23:41.987Z,9.40
2018-10-05T10:24:41.993Z,12.00
2018-10-05T10:25:42.015Z,13.40
2018-10-05T10:26:42.025Z,13.90
2018-10-05T10:27:42.052Z,11.00
2018-10-05T10:28:42.157Z,8.50
2018-10-05T10:29:42.166Z,14.00
2018-10-05T10:30:42.097Z,10.20
2018-10-05T10:31:42.098Z,12.60
2018-10-05T10:32:42.112Z,14.80
2018-10-05T10:33:42.162Z,10.50
2018-10-05T10:34:42.156Z,8.50
2018-10-05T10:35:42.156Z,11.90
2018-10-05T10:36:42.213Z,8.90
2018-10-05T10:37:42.186Z,10.70
2018-10-05T10:38:42.224Z,12.90
2018-10-05T10:39:42.217Z,9.30
2018-10-05T10:40:42.234Z,11.50
2018-10-05T10:41:42.249Z,11.60
2018-10-05T10:42:42.327Z,13.00
2018-10-05T10:43:42.337Z,11.80
2018-10-05T10:44:42.344Z,12.50
2018-10-05T10:45:42.306Z,12.50
2018-10-05T10:46:42.328Z,10.30
2018-10-05T10:47:42.337Z,8.40
2018-10-05T10:48:42.353Z,10.30
2018-10-05T10:49:42.422Z,13.30
2018-10-05T10:50:42.391Z,10.60
2018-10-05T10:51:42.397Z,9.50
2018-10-05T10:52:42.433Z,13.30
2018-10-05T10:53:42.429Z,10.60
2018-10-05T10:54:42.442Z,13.40
2018-10-05T10:55:42.457Z,14.20
2018-10-05T10:56:42.544Z,8.50
2018-10-05T10:57:42.490Z,11.40
2018-10-05T10:58:42.503Z,8.20
2018-10-05T10:59:42.518Z,9.80
2018-10-05T11:00:42.541Z,8.70
2018-10-05T11:01:42.548Z,12.50
2018-10-05T11:02:42.578Z,11.00
2018-10-05T11:03:42.578Z,9.40
2018-10-05T11:04:42.640Z,12.70
2018-10-05T11:05:42.617Z,9.40
2018-10-05T11:06:42.625Z,10.90
2018-10-05T11:07:42.639Z,8.30
2018-10-05T11:08:42.654Z,11.80
2018-10-05T11:09:42.669Z,8.90
2018-10-05T11:10:42.691Z,10.20
2018-10-05T11:11:42.700Z,10.30
2018-10-05T11:12:42.738Z,7.10
2018-10-05T11:13:42.733Z,9.60
2018-10-05T11:14:42.746Z,9.60
2018-10-05T11:15:42.762Z,9.40
2018-10-05T11:16:42.777Z,10.10
2018-10-05T11:17:42.794Z,8.60
2018-10-05T11:18:42.811Z,12.90
2018-10-05T11:19:42.823Z,6.70
2018-10-05T11:20:42.845Z,9.20
2018-10-05T11:21:42.853Z,8.10
2018-10-05T11:22:42.865Z,16.40
2018-10-05T11:23:42.885Z,8.60
2018-10-05T11:24:42.897Z,10.20
2018-10-05T11:25:42.913Z,10.40
2018-10-05T11:26:42.936Z,9.10
2018-10-05T11:27:42.946Z,9.60
2018-10-05T11:28:43.270Z,7.90
2018-10-05T11:29:43.046Z,10.20
2018-10-05T11:30:43.006Z,9.00
2018-10-05T11:31:43.008Z,8.40
2018-10-05T11:32:43.021Z,9.90
2018-10-05T11:33:43.046Z,7.00
2018-10-05T11:34:43.052Z,10.80
2018-10-05T11:35:43.065Z,10.40
2018-10-05T11:36:43.083Z,9.70
2018-10-05T11:37:43.099Z,12.40
2018-10-05T11:38:43.111Z,10.70
2018-10-05T11:39:43.128Z,9.30
2018-10-05T11:40:43.162Z,10.20
2018-10-05T11:41:43.158Z,14.20
2018-10-05T11:42:43.176Z,8.60
2018-10-05T11:43:43.188Z,15.70
2018-10-05T11:44:43.205Z,9.60
2018-10-05T11:45:43.218Z,9.00
2018-10-05T11:46:43.242Z,7.60
2018-10-05T11:47:43.291Z,7.10
2018-10-05T11:48:43.266Z,11.60
2018-10-05T11:49:43.293Z,7.80
2018-10-05T11:50:43.295Z,7.00
2018-10-05T11:51:43.312Z,8.40
2018-10-05T11:52:43.329Z,9.90
2018-10-05T11:53:43.540Z,9.70
2018-10-05T11:54:43.360Z,8.60
2018-10-05T11:55:43.374Z,7.80
2018-10-05T11:56:43.406Z,8.50
2018-10-05T11:57:43.405Z,8.00
2018-10-05T11:58:43.419Z,7.10
2018-10-05T11:59:43.487Z,10.10
2018-10-05T12:00:44.819Z,7.60
2018-10-05T12:01:43.464Z,6.90
2018-10-05T12:02:43.482Z,7.50
2018-10-05T12:03:43.497Z,9.00
2018-10-05T12:04:43.515Z,8.20
2018-10-05T12:05:43.578Z,7.40
2018-10-05T12:06:43.600Z,11.80
2018-10-05T12:07:43.688Z,8.60
2018-10-05T12:08:43.577Z,12.40
2018-10-05T12:09:43.591Z,6.10
2018-10-05T12:10:43.608Z,7.20
2018-10-05T12:11:43.626Z,7.20
2018-10-05T12:12:43.638Z,8.60
2018-10-05T12:13:43.675Z,8.60
2018-10-05T12:14:43.672Z,10.60
2018-10-05T12:15:43.690Z,9.00
2018-10-05T12:16:43.701Z,7.80
2018-10-05T12:17:43.714Z,6.60
2018-10-05T12:18:43.731Z,7.20
2018-10-05T12:19:43.750Z,7.90
2018-10-05T12:20:43.764Z,6.90
2018-10-05T12:21:43.776Z,5.60
2018-10-05T12:22:43.798Z,8.30
2018-10-05T12:23:43.808Z,9.60
2018-10-05T12:24:43.823Z,10.20
2018-10-05T12:25:43.838Z,7.20
2018-10-05T12:26:43.893Z,8.80
2018-10-05T12:27:43.870Z,8.10
2018-10-05T12:28:43.891Z,7.10
2018-10-05T12:29:43.901Z,7.70
2018-10-05T12:30:43.920Z,10.40
2018-10-05T12:31:43.931Z,7.50
2018-10-05T12:32:43.950Z,8.10
2018-10-05T12:33:43.977Z,9.30
2018-10-05T12:34:43.981Z,10.20
2018-10-05T12:35:43.998Z,8.00
2018-10-05T12:36:44.014Z,11.10
2018-10-05T12:37:44.028Z,8.20
2018-10-05T12:38:44.048Z,8.00
2018-10-05T12:39:44.063Z,9.50
2018-10-05T12:40:44.076Z,6.90
2018-10-05T12:41:44.296Z,8.80
2018-10-05T12:42:44.121Z,10.50
2018-10-05T12:43:44.121Z,8.70
2018-10-05T12:44:44.135Z,6.70
2018-10-05T12:45:44.157Z,9.80
2018-10-05T12:46:44.172Z,6.30
2018-10-05T12:47:44.189Z,7.50
2018-10-05T12:48:44.215Z,7.10
2018-10-05T12:49:44.376Z,8.70
2018-10-05T12:50:44.941Z,8.50
2018-10-05T12:51:44.856Z,7.80
2018-10-05T12:52:44.317Z,7.70
2018-10-05T12:53:44.304Z,8.90
2018-10-05T12:54:44.848Z,7.50
2018-10-05T12:55:44.945Z,6.60
2018-10-05T12:56:44.375Z,9.20
2018-10-05T12:57:44.341Z,8.70